Time;durP1;ratioP1;P1;durP2;ratioP2;P2;SDS_P1;SDS_P2;PMS_P1;PMS_P2;Temp;Humidity;BMP_temperature;BMP_pressure;BME280_temperature;BME280_humidity;BME280_pressure;Samples;Min_cycle;Max_cycle;Signal;HPM_P1;HPM_P2
2022/06/18 00:02:15;;;;;;;5.88;5.28;;;17.60;99.90;;;18.39;67.77;98515.63;5226249;28;20193;-58
2022/06/18 00:04:49;;;;;;;4.75;4.35;;;17.60;99.90;;;18.36;67.81;98507.75;5225034;28;20201;-59
2022/06/18 00:07:24;;;;;;;4.47;4.18;;;17.50;99.90;;;18.35;68.38;98503.41;5222091;28;20205;-59
2022/06/18 00:10:01;;;;;;;5.05;4.75;;;17.60;99.90;;;18.33;66.48;98507.63;5226909;28;20258;-59
2022/06/18 00:15:31;;;;;;;4.95;4.55;;;17.50;99.90;;;18.29;68.10;98508.38;5226572;28;20694;-59
2022/06/18 00:18:07;;;;;;;4.65;4.25;;;17.50;99.90;;;18.26;68.48;98500.50;5223025;28;20197;-59
2022/06/18 00:20:42;;;;;;;4.38;3.97;;;17.50;99.90;;;18.27;67.61;98503.94;5223273;28;20239;-59
2022/06/18 00:23:17;;;;;;;4.07;3.78;;;17.40;99.90;;;18.29;68.22;98503.19;5225942;28;20247;-59
2022/06/18 00:25:53;;;;;;;4.68;4.28;;;17.40;99.90;;;18.21;68.92;98509.78;5222730;28;20677;-59
2022/06/18 00:28:32;;;;;;;4.10;3.80;;;17.40;99.90;;;18.18;69.12;98509.66;5221034;28;20197;-59
2022/06/18 00:31:05;;;;;;;4.93;4.18;;;17.40;99.90;;;18.07;68.42;98509.25;5223495;28;20197;-59
2022/06/18 00:33:40;;;;;;;5.57;5.05;;;17.30;99.90;;;18.10;69.36;98503.31;5224057;28;20224;-59
2022/06/18 00:36:17;;;;;;;5.82;5.32;;;17.30;99.90;;;18.15;69.29;98505.25;5220801;28;20243;-58
2022/06/18 00:38:50;;;;;;;4.95;4.53;;;17.30;99.90;;;18.15;69.65;98499.19;5226945;28;20205;-59
2022/06/18 00:41:27;;;;;;;5.10;4.70;;;17.30;99.90;;;18.15;69.85;98499.19;5222787;28;20202;-59
2022/06/18 00:44:06;;;;;;;4.53;4.22;;;17.30;99.90;;;18.17;69.68;98492.34;5226224;28;20707;-59
2022/06/18 00:46:50;;;;;;;4.40;3.95;;;17.40;99.90;;;18.09;69.56;98493.81;5224139;28;20224;-60
2022/06/18 00:49:30;;;;;;;4.60;4.20;;;17.30;99.90;;;18.06;69.14;98494.56;5221421;28;20600;-59
2022/06/18 00:52:09;;;;;;;5.55;4.22;;;17.30;99.90;;;18.06;69.66;98493.69;5221778;28;20229;-59
2022/06/18 00:54:52;;;;;;;6.55;4.65;;;17.30;99.90;;;18.07;69.92;98491.16;5224939;28;20194;-59
2022/06/18 00:57:31;;;;;;;5.47;5.00;;;17.30;99.90;;;18.02;69.50;98487.50;5224215;28;20235;-59
2022/06/18 01:00:13;;;;;;;5.00;4.70;;;17.30;99.90;;;18.03;69.06;98489.28;5222681;28;20201;-58
2022/06/18 01:02:52;;;;;;;5.35;4.95;;;17.20;99.90;;;17.95;68.77;98491.56;5221824;28;20202;-58
2022/06/18 01:05:36;;;;;;;5.00;4.60;;;17.10;99.90;;;17.85;68.20;98488.56;5220437;28;20272;-60
2022/06/18 01:08:16;;;;;;;6.80;6.32;;;17.00;99.90;;;17.86;69.14;98486.06;5225149;28;20249;-59
2022/06/18 01:10:55;;;;;;;4.90;4.50;;;17.00;99.90;;;17.84;69.38;98487.69;5225015;28;20272;-59
2022/06/18 01:13:34;;;;;;;4.82;4.53;;;17.00;99.90;;;17.85;69.38;98484.25;5231666;28;20279;-58
2022/06/18 01:16:10;;;;;;;4.63;4.22;;;17.00;99.90;;;17.85;69.85;98483.38;5226419;28;20227;-59
2022/06/18 01:18:44;;;;;;;5.00;4.60;;;17.00;99.90;;;17.78;70.38;98487.44;5221199;28;20239;-59
2022/06/18 01:21:28;;;;;;;4.75;4.45;;;17.00;99.90;;;17.70;70.40;98478.47;5221406;28;20271;-59
2022/06/18 01:24:11;;;;;;;5.07;4.65;;;16.90;99.90;;;17.67;71.62;98478.34;5226480;28;20205;-59
2022/06/18 01:26:48;;;;;;;4.10;3.80;;;16.90;99.90;;;17.61;71.51;98472.94;5222399;28;20240;-59
2022/06/18 01:29:21;;;;;;;4.57;4.28;;;16.90;99.90;;;17.62;71.53;98477.28;5221750;28;20293;-59
2022/06/18 01:31:56;;;;;;;5.47;4.97;;;16.80;99.90;;;17.61;71.61;98473.81;5220197;28;20284;-59
2022/06/18 01:34:29;;;;;;;4.90;4.60;;;16.80;99.90;;;17.52;72.59;98478.66;5219790;28;20566;-59
2022/06/18 01:37:05;;;;;;;5.13;4.72;;;16.80;99.90;;;17.48;72.30;98471.56;5225720;28;20244;-59
2022/06/18 01:39:45;;;;;;;5.10;4.80;;;16.70;99.90;;;17.48;70.80;98469.00;5221421;28;20204;-59
2022/06/18 01:42:24;;;;;;;5.50;5.10;;;16.60;99.90;;;17.46;72.01;98478.41;5220251;28;20201;-59
2022/06/18 01:45:03;;;;;;;5.15;4.85;;;16.60;99.90;;;17.44;72.27;98467.13;5225693;28;20197;-59
2022/06/18 01:47:42;;;;;;;5.30;4.95;;;16.60;99.90;;;17.41;72.28;98469.59;5222790;28;20228;-59
2022/06/18 01:50:20;;;;;;;5.55;5.15;;;16.50;99.90;;;17.36;72.91;98465.91;5222870;28;20298;-58
2022/06/18 01:53:01;;;;;;;4.97;4.57;;;16.50;99.90;;;17.31;73.31;98461.47;5220947;28;20188;-59
2022/06/18 01:55:42;;;;;;;4.85;4.55;;;16.50;99.90;;;17.31;72.45;98460.56;5228239;28;20724;-58
2022/06/18 01:58:22;;;;;;;4.93;4.60;;;16.50;99.90;;;17.24;72.30;98455.97;5219690;28;20455;-59
2022/06/18 02:00:59;;;;;;;5.47;5.13;;;16.40;99.90;;;17.18;73.58;98450.56;5219571;28;20299;-59
2022/06/18 02:03:32;;;;;;;4.93;4.63;;;16.40;99.90;;;17.14;73.54;98448.66;5222583;28;20197;-58
2022/06/18 02:06:08;;;;;;;5.13;4.75;;;16.30;99.90;;;17.18;72.84;98442.81;5226503;28;20746;-59
2022/06/18 02:08:41;;;;;;;4.75;4.45;;;16.30;99.90;;;17.15;73.77;98445.28;5226260;28;20678;-58
2022/06/18 02:11:17;;;;;;;5.18;4.75;;;16.30;99.90;;;17.10;73.73;98438.22;5228733;28;20228;-59
2022/06/18 02:13:59;;;;;;;5.00;4.60;;;16.30;99.90;;;17.08;73.81;98432.13;5236951;28;20711;-58
2022/06/18 02:16:39;;;;;;;4.82;4.53;;;16.20;99.90;;;17.04;73.91;98425.03;5223102;28;20223;-59
2022/06/18 02:19:15;;;;;;;5.03;4.65;;;16.20;99.90;;;17.06;73.97;98436.34;5221739;28;20246;-58
2022/06/18 02:21:52;;;;;;;5.28;4.88;;;16.20;99.90;;;17.02;74.27;98434.44;5224302;28;20197;-58
2022/06/18 02:24:25;;;;;;;5.30;4.90;;;16.20;99.90;;;16.96;74.15;98431.59;5232688;28;20341;-58
2022/06/18 02:27:00;;;;;;;5.22;4.82;;;16.20;99.90;;;16.89;73.71;98422.72;5223927;28;20221;-59
2022/06/18 02:29:35;;;;;;;4.90;4.60;;;16.10;99.90;;;16.86;74.26;98426.88;5223966;28;20197;-58
2022/06/18 02:32:21;;;;;;;4.80;4.50;;;16.00;99.90;;;16.86;73.19;98432.06;5220035;28;20251;-58
2022/06/18 02:34:55;;;;;;;4.57;4.28;;;16.00;99.90;;;16.82;73.89;98424.97;5222877;28;20692;-59
2022/06/18 02:37:31;;;;;;;4.38;4.07;;;16.00;99.90;;;16.80;73.15;98421.47;5230375;28;20221;-57
2022/06/18 02:40:16;;;;;;;4.65;4.35;;;16.00;99.90;;;16.69;72.74;98417.53;5223694;28;20255;-58
2022/06/18 02:42:54;;;;;;;4.65;4.35;;;15.80;99.90;;;16.65;73.34;98424.25;5225096;28;20584;-59
2022/06/18 02:45:30;;;;;;;4.90;4.60;;;15.90;99.90;;;16.67;73.84;98420.91;5222485;28;20271;-58
2022/06/18 02:48:05;;;;;;;4.65;4.35;;;15.90;99.90;;;16.71;73.07;98410.72;5223926;28;20209;-59
2022/06/18 02:50:41;;;;;;;4.95;4.55;;;15.90;99.90;;;16.70;73.17;98420.16;5221061;28;20189;-59
2022/06/18 02:53:15;;;;;;;4.70;4.30;;;15.80;99.90;;;16.67;73.07;98420.91;5219279;28;20208;-58
2022/06/18 02:55:52;;;;;;;4.75;4.45;;;15.80;99.90;;;16.63;73.52;98425.91;5214395;28;20226;-58
2022/06/18 02:58:30;;;;;;;4.60;4.30;;;15.80;99.90;;;16.59;74.11;98422.28;5201991;28;20202;-59
2022/06/18 03:01:07;;;;;;;5.30;4.90;;;15.80;99.90;;;16.55;74.43;98414.34;5202873;28;20198;-59
2022/06/18 03:03:47;;;;;;;5.25;4.82;;;15.70;99.90;;;16.45;74.02;98410.47;5204529;28;20263;-58
2022/06/18 03:06:23;;;;;;;4.53;4.22;;;15.60;99.90;;;16.50;74.13;98416.72;5207046;28;20281;-58
2022/06/18 03:08:58;;;;;;;4.97;4.57;;;15.60;99.90;;;16.47;73.90;98419.19;5210188;28;20251;-58
2022/06/18 03:14:23;;;;;;;4.47;4.10;;;15.70;99.90;;;16.39;73.87;98410.22;5203723;28;20239;-59
2022/06/18 03:16:56;;;;;;;5.00;4.68;;;15.60;99.90;;;16.41;74.49;98408.59;5208385;28;20263;-59
2022/06/18 03:19:36;;;;;;;4.85;4.55;;;15.60;99.90;;;16.40;74.72;98414.59;5207153;28;20198;-59
2022/06/18 03:22:13;;;;;;;5.20;4.80;;;15.60;99.90;;;16.40;74.52;98412.88;5207092;28;20780;-58
2022/06/18 03:24:47;;;;;;;5.18;4.78;;;15.60;99.90;;;16.46;74.64;98409.69;5215979;28;20239;-59
2022/06/18 03:27:20;;;;;;;5.22;4.65;;;15.60;99.90;;;16.44;75.76;98406.16;5215782;28;20631;-59
2022/06/18 03:29:55;;;;;;;4.10;3.80;;;15.60;99.90;;;16.45;74.96;98402.75;5206128;28;20198;-59
2022/06/18 03:32:28;;;;;;;4.65;4.35;;;15.70;99.90;;;16.40;74.88;98401.69;5214006;28;20626;-59
2022/06/18 03:35:01;;;;;;;4.88;4.47;;;15.70;99.90;;;16.44;74.15;98395.84;5204983;28;20305;-59
2022/06/18 03:37:34;;;;;;;5.07;4.70;;;15.70;99.90;;;16.47;75.13;98398.53;5204878;28;20670;-59
2022/06/18 03:40:13;;;;;;;5.00;4.63;;;15.70;99.90;;;16.48;74.78;98396.84;5211941;28;20736;-59
2022/06/18 03:42:46;;;;;;;4.70;4.32;;;15.80;99.90;;;16.46;75.13;98409.69;5213174;28;20579;-58
2022/06/18 03:45:21;;;;;;;6.03;5.53;;;15.70;99.90;;;16.47;74.67;98401.13;5203743;28;20225;-59
2022/06/18 03:47:54;;;;;;;5.47;5.13;;;15.70;99.90;;;16.48;76.43;98405.44;5203483;28;20201;-59
2022/06/18 03:50:28;;;;;;;4.72;4.43;;;15.80;99.90;;;16.49;75.29;98401.19;5204081;28;20227;-59
2022/06/18 03:53:01;;;;;;;5.07;4.78;;;15.80;99.90;;;16.48;75.04;98405.44;5206562;28;20194;-59
2022/06/18 03:55:34;;;;;;;5.03;4.70;;;15.80;99.90;;;16.57;74.62;98405.88;5210654;28;20634;-59
2022/06/18 03:58:07;;;;;;;5.47;4.97;;;15.80;99.90;;;16.49;74.05;98408.94;5230196;28;20197;-59
2022/06/18 04:00:42;;;;;;;4.95;4.65;;;15.70;99.90;;;16.51;74.33;98405.63;5235188;28;20201;-59
2022/06/18 04:03:15;;;;;;;5.05;4.68;;;15.70;99.90;;;16.54;74.63;98412.56;5227301;28;20618;-58
2022/06/18 04:05:48;;;;;;;5.03;4.63;;;15.80;99.90;;;16.55;74.29;98411.78;5232296;28;20244;-58
2022/06/18 04:08:22;;;;;;;5.50;4.93;;;15.80;99.90;;;16.55;75.15;98415.22;5234061;28;20223;-59
2022/06/18 04:10:55;;;;;;;5.18;4.78;;;15.80;99.90;;;16.60;74.81;98413.75;5225098;28;20201;-58
2022/06/18 04:13:29;;;;;;;4.88;4.50;;;15.90;99.90;;;16.65;75.37;98422.56;5224383;28;20197;-57
2022/06/18 04:16:04;;;;;;;4.43;4.07;;;15.90;99.90;;;16.73;74.78;98414.25;5227956;28;20259;-58
2022/06/18 04:18:38;;;;;;;4.95;4.65;;;16.00;99.90;;;16.75;74.26;98417.78;5229992;28;20197;-58
2022/06/18 04:21:11;;;;;;;4.82;4.53;;;16.00;99.90;;;16.83;74.08;98416.44;5231073;28;20219;-59
2022/06/18 04:23:45;;;;;;;5.72;5.22;;;16.10;99.90;;;16.89;73.68;98421.84;5226167;28;20239;-59
2022/06/18 04:26:18;;;;;;;4.72;4.43;;;16.00;99.90;;;16.90;74.59;98428.75;5228488;28;20236;-58
2022/06/18 04:28:51;;;;;;;4.80;4.38;;;16.10;99.90;;;16.92;74.11;98421.97;5233254;28;20197;-59
2022/06/18 04:31:26;;;;;;;5.40;4.90;;;16.20;99.90;;;16.95;73.59;98429.84;5223457;28;20256;-59
2022/06/18 04:34:00;;;;;;;4.95;4.63;;;16.20;99.90;;;17.00;73.81;98423.16;5224199;28;21350;-59
2022/06/18 04:36:38;;;;;;;4.97;4.65;;;16.30;99.90;;;17.07;73.66;98430.34;5222983;28;20239;-59
2022/06/18 04:39:12;;;;;;;4.78;4.50;;;16.30;99.90;;;17.14;73.28;98418.56;5228875;28;20673;-58
2022/06/18 04:41:50;;;;;;;6.18;5.25;;;16.40;99.90;;;17.20;71.64;98425.69;5226741;28;20247;-59
2022/06/18 04:44:23;;;;;;;5.65;5.25;;;16.40;99.90;;;17.36;72.91;98430.63;5227118;28;20267;-59
2022/06/18 04:46:57;;;;;;;5.70;5.20;;;16.60;99.90;;;17.77;71.08;98427.06;5228740;28;20225;-59
2022/06/18 04:49:31;;;;;;;4.57;4.28;;;17.10;99.90;;;18.28;68.71;98418.59;5227065;28;20197;-59
2022/06/18 04:52:05;;;;;;;4.63;4.20;;;17.50;99.90;;;18.73;67.01;98427.91;5221391;28;20193;-58
2022/06/18 04:54:38;;;;;;;4.22;4.00;;;17.90;99.90;;;19.29;64.42;98422.03;5224330;28;20724;-59
2022/06/18 04:57:11;;;;;;;5.05;4.00;;;18.30;99.90;;;19.72;62.27;98422.53;5206304;28;20267;-60
2022/06/18 04:59:44;;;;;;;5.15;4.70;;;18.60;99.90;;;20.10;61.41;98425.34;5201494;28;20255;-59
2022/06/18 05:02:23;;;;;;;4.57;4.28;;;18.90;99.90;;;20.50;60.13;98421.25;5204724;28;20284;-53
2022/06/18 05:04:57;;;;;;;4.78;4.47;;;19.20;99.90;;;20.81;59.19;98417.78;5201965;28;20197;-57
2022/06/18 05:07:30;;;;;;;4.93;4.63;;;19.50;99.70;;;21.00;58.11;98419.09;5201992;28;20574;-57
2022/06/18 05:10:04;;;;;;;5.05;4.40;;;19.60;99.10;;;21.22;57.41;98420.50;5210125;28;20207;-58
2022/06/18 05:12:38;;;;;;;4.57;4.28;;;19.80;98.60;;;21.41;57.12;98414.94;5203517;28;20197;-57
2022/06/18 05:15:12;;;;;;;4.53;4.22;;;19.90;98.40;;;21.62;56.01;98413.66;5202198;28;20317;-57
2022/06/18 05:17:48;;;;;;;4.43;4.13;;;20.20;97.70;;;21.84;54.93;98418.50;5201669;28;20228;-59
2022/06/18 05:20:24;;;;;;;4.47;4.13;;;20.30;97.60;;;22.13;54.66;98418.22;5205427;28;20243;-58
2022/06/18 05:22:57;;;;;;;4.78;4.38;;;20.60;96.70;;;22.35;53.70;98411.72;5201371;28;20205;-58
2022/06/18 05:25:30;;;;;;;4.57;4.28;;;20.70;96.40;;;22.49;53.49;98415.47;5205113;28;20477;-57
2022/06/18 05:28:04;;;;;;;4.90;4.50;;;20.90;95.90;;;22.72;52.67;98418.53;5205780;28;20252;-58
2022/06/18 05:30:38;;;;;;;4.95;4.55;;;21.20;95.90;;;22.99;51.50;98418.16;5201981;28;20240;-58
2022/06/18 05:33:13;;;;;;;5.28;4.88;;;21.40;94.80;;;23.04;51.92;98415.63;5196857;28;20206;-58
2022/06/18 05:35:46;;;;;;;4.53;4.22;;;21.40;95.00;;;23.25;51.78;98413.34;5200971;28;20306;-59
2022/06/18 05:38:22;;;;;;;4.55;4.22;;;21.70;94.80;;;23.58;50.78;98410.38;5207886;28;20194;-60
2022/06/18 05:40:56;;;;;;;4.38;4.07;;;21.90;94.20;;;23.86;50.01;98409.88;5203965;28;20198;-59
2022/06/18 05:43:29;;;;;;;4.55;4.25;;;22.00;94.30;;;23.95;49.38;98400.47;5205815;28;20198;-59
2022/06/18 05:46:02;;;;;;;3.88;3.60;;;22.20;93.40;;;23.85;49.77;98409.03;5205144;28;20214;-59
2022/06/18 05:48:36;;;;;;;4.72;4.38;;;22.30;93.20;;;24.06;48.87;98408.41;5203369;28;20210;-59
2022/06/18 05:51:10;;;;;;;4.75;4.35;;;22.40;92.90;;;24.29;49.02;98403.44;5204065;28;20202;-59
2022/06/18 05:53:43;;;;;;;4.10;3.80;;;22.50;93.20;;;24.67;47.17;98405.66;5205528;28;20198;-57
2022/06/18 05:56:16;;;;;;;4.45;4.15;;;22.70;92.10;;;24.94;45.37;98402.38;5208670;28;20254;-59
2022/06/18 05:58:49;;;;;;;5.88;5.47;;;23.00;91.00;;;25.20;44.60;98397.41;5204265;28;20206;-59
2022/06/18 06:01:28;;;;;;;4.43;4.07;;;23.20;90.40;;;25.54;44.28;98395.88;5200249;28;20198;-59
2022/06/18 06:04:03;;;;;;;4.28;3.97;;;23.50;90.40;;;25.65;45.00;98390.72;5201197;28;20198;-59
2022/06/18 06:06:36;;;;;;;3.95;3.75;;;23.60;90.80;;;25.70;44.93;98396.00;5196841;28;20224;-59
2022/06/18 06:09:11;;;;;;;4.22;3.92;;;23.80;90.70;;;26.20;43.65;98397.97;5204382;28;20208;-59
2022/06/18 06:11:43;;;;;;;4.40;4.00;;;24.00;89.60;;;26.40;42.45;98391.03;5202806;28;20282;-60
2022/06/18 06:14:18;;;;;;;4.25;3.95;;;24.30;88.10;;;26.58;42.64;98398.09;5202813;28;20209;-60
2022/06/18 06:16:52;;;;;;;3.88;3.67;;;24.40;88.30;;;26.91;42.04;98397.28;5201134;28;20314;-60
2022/06/18 06:19:26;;;;;;;3.95;3.70;;;24.50;88.40;;;27.11;42.03;98397.28;5204404;28;20229;-59
2022/06/18 06:21:59;;;;;;;4.32;3.83;;;24.70;88.10;;;27.29;41.82;98385.03;5200714;28;20471;-60
2022/06/18 06:24:32;;;;;;;4.78;3.70;;;24.70;88.40;;;27.42;41.90;98388.53;5196839;28;20215;-61
2022/06/18 06:27:06;;;;;;;4.20;3.90;;;25.00;87.60;;;27.76;41.33;98386.69;5196578;28;20648;-61
2022/06/18 06:29:39;;;;;;;3.80;3.35;;;25.20;87.70;;;27.92;40.47;98392.78;5203070;28;20252;-61
2022/06/18 06:32:12;;;;;;;3.63;3.28;;;25.40;86.80;;;28.09;40.69;98390.97;5198379;28;20197;-60
2022/06/18 06:34:47;;;;;;;3.85;3.50;;;25.50;86.30;;;28.42;40.15;98378.56;5202401;28;20248;-61
2022/06/18 06:37:20;;;;;;;4.20;3.80;;;25.90;85.60;;;28.65;39.28;98381.06;5202522;28;20307;-61
2022/06/18 06:39:53;;;;;;;3.90;3.50;;;26.10;84.20;;;29.05;38.62;98376.38;5206381;28;20193;-61
2022/06/18 06:42:27;;;;;;;3.72;3.53;;;26.40;84.30;;;29.31;37.76;98372.66;5201649;28;20229;-61
2022/06/18 06:45:00;;;;;;;3.60;3.30;;;26.70;83.60;;;29.45;38.56;98372.50;5200245;28;20263;-61
2022/06/18 06:47:33;;;;;;;3.67;3.38;;;27.00;82.90;;;29.64;37.51;98372.28;5202814;28;20197;-61
2022/06/18 06:50:10;;;;;;;2.90;2.80;;;27.30;81.10;;;30.06;36.48;98371.81;5202531;28;20233;-61
2022/06/18 06:52:44;;;;;;;2.90;2.70;;;27.60;80.20;;;30.15;35.37;98368.19;5202535;28;20282;-61
2022/06/18 06:58:13;;;;;;;3.38;3.08;;;28.10;79.40;;;31.17;35.09;98363.16;5202069;28;20259;-61
2022/06/18 07:00:48;;;;;;;3.50;3.20;;;28.50;78.10;;;30.83;34.93;98369.00;5198709;28;20251;-60
2022/06/18 07:03:27;;;;;;;3.30;3.00;;;28.50;77.30;;;31.37;34.05;98369.00;5207314;28;20216;-61
2022/06/18 07:06:03;;;;;;;3.15;2.95;;;28.70;76.50;;;31.55;34.20;98367.75;5203886;28;20271;-61
2022/06/18 07:08:36;;;;;;;3.63;3.28;;;29.00;76.10;;;31.83;33.53;98365.44;5205296;28;20200;-61
2022/06/18 07:11:10;;;;;;;3.63;3.40;;;29.20;75.50;;;32.01;32.51;98368.66;5204042;28;20238;-62
2022/06/18 07:13:43;;;;;;;3.10;2.90;;;29.30;74.40;;;32.19;32.19;98370.03;5192537;28;20618;-62
2022/06/18 07:16:18;;;;;;;3.20;3.00;;;29.40;73.20;;;32.16;33.01;98378.03;5206098;28;20322;-62
2022/06/18 07:18:53;;;;;;;3.25;3.05;;;29.40;74.90;;;32.27;31.95;98370.72;5202538;28;20247;-61
2022/06/18 07:21:28;;;;;;;3.42;3.13;;;29.80;72.10;;;32.53;32.13;98370.16;5201285;28;20204;-61
2022/06/18 07:24:01;;;;;;;3.80;3.50;;;29.90;72.10;;;32.36;31.39;98369.66;5201405;28;20279;-62
2022/06/18 07:26:35;;;;;;;3.25;3.05;;;29.90;72.10;;;32.89;31.10;98365.78;5201147;28;20267;-61
2022/06/18 07:29:09;;;;;;;3.10;2.90;;;30.10;69.90;;;32.81;29.13;98369.53;5197662;28;20210;-62
2022/06/18 07:31:42;;;;;;;3.08;2.80;;;30.30;67.30;;;33.10;28.04;98364.38;5203353;28;20267;-61
2022/06/18 07:34:15;;;;;;;3.00;2.80;;;30.30;65.80;;;33.05;28.40;98355.72;5200197;28;20271;-61
2022/06/18 07:36:49;;;;;;;2.67;2.47;;;30.40;65.50;;;32.78;28.78;98351.06;5200722;28;20218;-61
2022/06/18 07:39:23;;;;;;;2.60;2.50;;;30.40;65.90;;;32.75;29.15;98358.16;5200885;28;20208;-62
2022/06/18 07:41:57;;;;;;;2.92;2.80;;;30.40;66.40;;;33.10;27.71;98345.84;5199280;28;20201;-61
2022/06/18 07:44:30;;;;;;;2.90;2.72;;;30.60;64.00;;;33.13;28.76;98348.41;5206059;28;20192;-61
2022/06/18 07:47:04;;;;;;;3.60;2.58;;;30.50;65.30;;;33.39;27.93;98345.06;5198848;28;20621;-60
2022/06/18 07:49:37;;;;;;;3.00;2.80;;;30.70;64.50;;;33.59;28.34;98344.53;5201065;28;20708;-62
2022/06/18 07:52:13;;;;;;;2.72;2.53;;;30.90;65.50;;;33.79;27.76;98337.81;5209331;28;20263;-62
2022/06/18 07:54:46;;;;;;;3.00;2.80;;;31.00;64.10;;;33.86;27.30;98336.75;5201853;28;20251;-61
2022/06/18 07:57:26;;;;;;;2.90;2.70;;;31.20;63.70;;;34.05;28.35;98343.28;5202833;28;20205;-62
2022/06/18 07:59:59;;;;;;;2.88;2.67;;;31.20;67.00;;;34.34;28.75;98338.88;5204618;28;20198;-62
2022/06/18 08:02:36;;;;;;;2.60;2.40;;;31.60;66.60;;;34.48;27.51;98339.31;5202574;28;20228;-60
2022/06/18 08:05:12;;;;;;;2.90;2.70;;;31.80;64.50;;;34.68;27.43;98340.44;5203193;28;20217;-61
2022/06/18 08:07:46;;;;;;;2.80;2.60;;;31.70;64.00;;;34.56;26.98;98333.75;5203451;28;20220;-61
2022/06/18 08:10:39;;;;;;;2.95;2.63;;;31.60;64.30;;;34.67;27.42;98330.75;5201597;28;20201;-61
2022/06/18 08:13:12;;;;;;;3.38;3.10;;;31.60;64.60;;;34.89;27.79;98326.47;5203802;28;20201;-61
2022/06/18 08:15:53;;;;;;;2.95;2.75;;;31.90;63.70;;;34.98;27.49;98328.81;5208648;28;20217;-61
2022/06/18 08:18:26;;;;;;;3.20;2.83;;;32.10;64.80;;;34.87;28.37;98328.31;5204983;28;20266;-61
2022/06/18 08:21:07;;;;;;;3.00;2.80;;;32.00;65.70;;;35.08;27.17;98329.38;5202012;28;20284;-61
2022/06/18 08:23:41;;;;;;;3.22;2.88;;;32.30;63.40;;;34.97;27.38;98326.22;5201269;28;20226;-59
2022/06/18 08:26:14;;;;;;;2.95;2.67;;;32.30;63.60;;;34.77;27.93;98316.25;5207449;28;20248;-61
2022/06/18 08:28:49;;;;;;;2.92;2.65;;;32.30;63.80;;;34.38;29.06;98318.38;5203504;28;20208;-61
2022/06/18 08:31:22;;;;;;;2.50;2.40;;;32.20;64.90;;;34.44;28.10;98310.22;5203539;28;20252;-61
2022/06/18 08:33:55;;;;;;;3.33;3.03;;;32.10;63.10;;;34.74;28.06;98313.69;5207733;28;20236;-61
2022/06/18 08:36:29;;;;;;;3.45;2.72;;;32.40;63.70;;;34.73;27.59;98311.94;5201843;28;20323;-60
2022/06/18 08:39:05;;;;;;;2.90;2.45;;;32.70;62.30;;;34.65;27.50;98308.69;5201113;28;20210;-61
2022/06/18 08:42:11;;;;;;;2.70;2.50;;;32.60;61.30;;;34.67;28.12;98309.50;5205379;28;20232;-61
2022/06/18 08:45:21;;;;;;;2.88;2.67;;;32.70;63.00;;;34.68;28.00;98305.91;5202326;28;20201;-61
2022/06/18 08:48:12;;;;;;;2.80;2.60;;;33.00;61.10;;;34.36;28.85;98302.50;5192114;28;20200;-61
2022/06/18 08:51:04;;;;;;;3.17;2.80;;;32.70;62.60;;;34.44;29.58;98304.91;5200274;28;20239;-59
2022/06/18 08:54:19;;;;;;;3.10;2.80;;;32.60;65.20;;;34.16;28.04;98299.59;5202072;28;20205;-60
2022/06/18 08:57:01;;;;;;;2.92;2.55;;;32.40;62.70;;;34.17;28.29;98291.59;5219191;28;20228;-59
2022/06/18 08:59:47;;;;;;;2.83;2.60;;;32.50;61.90;;;34.30;26.67;98289.41;5222456;28;20197;-61
2022/06/18 09:02:27;;;;;;;2.80;2.60;;;32.70;59.40;;;34.27;28.83;98285.06;5221807;28;20201;-60
2022/06/18 09:05:33;;;;;;;2.80;2.60;;;32.80;61.70;;;34.58;28.14;98280.59;5239104;28;20727;-60
2022/06/18 09:08:35;;;;;;;2.58;2.47;;;33.00;61.50;;;34.58;26.84;98285.91;5226087;28;20215;-60
2022/06/18 09:11:24;;;;;;;2.53;2.42;;;33.00;59.90;;;34.13;28.73;98292.59;5222791;28;20232;-61
2022/06/18 09:14:03;;;;;;;2.70;2.50;;;32.60;61.70;;;33.97;28.21;98284.22;5224909;28;20257;-61
2022/06/18 09:16:42;;;;;;;3.20;2.90;;;32.60;61.80;;;34.11;29.89;98285.59;5226493;28;20224;-61
2022/06/18 09:19:20;;;;;;;2.60;2.40;;;32.60;64.30;;;33.93;27.96;98282.56;5226032;28;20215;-61
2022/06/18 09:21:56;;;;;;;3.05;2.40;;;32.50;60.30;;;33.85;29.31;98279.28;5225691;28;20282;-61
2022/06/18 09:24:36;;;;;;;4.00;3.10;;;32.50;61.60;;;33.93;28.82;98276.41;5221516;28;20231;-58
2022/06/18 09:27:21;;;;;;;2.33;2.22;;;32.50;61.20;;;34.09;27.87;98277.69;5220877;28;20644;-60
2022/06/18 09:30:02;;;;;;;2.72;2.53;;;32.70;60.70;;;34.04;27.35;98269.00;5225278;28;20634;-60
2022/06/18 09:32:40;;;;;;;2.60;2.40;;;32.60;59.00;;;33.98;28.61;98270.03;5223850;28;20666;-61
2022/06/18 09:35:20;;;;;;;2.63;2.42;;;32.60;60.50;;;34.04;28.42;98267.22;5224536;28;20277;-58
2022/06/18 09:37:59;;;;;;;2.63;2.20;;;32.70;59.80;;;33.84;27.41;98266.94;5227155;28;20639;-60
2022/06/18 09:40:36;;;;;;;2.47;2.28;;;32.70;58.50;;;33.93;27.05;98266.66;5232764;28;20270;-58
2022/06/18 09:43:30;;;;;;;2.80;2.22;;;32.80;58.40;;;34.16;26.49;98262.44;5235563;28;20391;-59
2022/06/18 09:46:10;;;;;;;2.63;2.42;;;32.90;57.20;;;34.45;25.99;98258.84;5226074;28;20239;-59
2022/06/18 09:48:43;;;;;;;2.42;2.22;;;33.20;57.30;;;34.48;25.00;98254.31;5228303;28;20466;-58
2022/06/18 09:51:26;;;;;;;2.20;2.10;;;33.30;55.80;;;34.37;24.82;98251.16;5223851;28;20224;-59
2022/06/18 09:54:03;;;;;;;2.28;2.17;;;33.10;55.70;;;34.49;25.53;98257.84;5230119;28;20286;-59
2022/06/18 09:56:43;;;;;;;2.35;2.25;;;33.10;57.00;;;34.57;25.39;98255.84;5231965;28;20224;-60
2022/06/18 09:59:21;;;;;;;2.33;2.20;;;33.30;56.10;;;34.74;25.23;98247.25;5225100;28;20205;-59
2022/06/18 10:01:56;;;;;;;2.15;2.05;;;33.40;55.80;;;34.67;26.09;98245.75;5221449;28;20612;-59
2022/06/18 10:07:29;;;;;;;2.17;1.98;;;33.00;57.80;;;34.00;25.94;98246.13;5225127;28;20578;-59
2022/06/18 10:10:09;;;;;;;2.35;2.08;;;32.80;55.70;;;33.90;25.94;98245.50;5228421;28;20237;-58
2022/06/18 10:12:48;;;;;;;2.00;1.90;;;32.80;56.70;;;33.88;25.91;98239.38;5228975;28;20246;-59
2022/06/18 10:15:24;;;;;;;2.10;1.90;;;32.70;56.20;;;33.96;26.57;98241.81;5221873;28;20223;-59
2022/06/18 10:18:16;;;;;;;2.00;1.90;;;32.80;57.00;;;34.14;26.13;98243.03;5233004;28;20491;-60
2022/06/18 10:20:57;;;;;;;2.47;2.28;;;33.00;57.00;;;34.22;25.13;98238.34;5233138;28;20200;-59
2022/06/18 10:23:43;;;;;;;2.15;1.95;;;32.80;55.80;;;34.15;24.09;98239.47;5225577;28;20728;-59
2022/06/18 10:26:30;;;;;;;2.40;2.20;;;32.80;54.50;;;33.98;24.48;98235.53;5220868;28;20244;-59
2022/06/18 10:29:15;;;;;;;2.00;1.80;;;32.80;54.10;;;33.49;25.17;98226.38;5226693;28;20194;-57
2022/06/18 10:32:10;;;;;;;1.63;1.52;;;32.60;54.50;;;33.63;25.30;98224.22;5227445;28;20193;-57
2022/06/18 10:35:03;;;;;;;1.75;1.65;;;32.60;55.80;;;33.71;25.27;98224.00;5228064;28;20231;-59
2022/06/18 10:37:53;;;;;;;3.20;1.65;;;32.50;55.40;;;33.82;25.44;98223.66;5222158;28;20270;-59
2022/06/18 10:40:51;;;;;;;2.03;1.92;;;32.80;55.90;;;33.90;25.51;98213.69;5223028;28;20471;-59
2022/06/18 10:43:49;;;;;;;2.05;1.92;;;32.80;55.40;;;33.94;24.49;98206.47;5232374;28;20203;-60
2022/06/18 10:46:24;;;;;;;2.30;1.95;;;32.90;53.70;;;33.91;24.45;98203.94;5227092;28;20216;-59
2022/06/18 10:49:03;;;;;;;2.10;2.00;;;32.80;54.40;;;34.04;23.91;98200.88;5237112;28;20204;-59
2022/06/18 10:51:45;;;;;;;2.13;1.92;;;33.00;53.00;;;34.00;23.19;98199.22;5221317;28;20650;-59
2022/06/18 10:54:30;;;;;;;2.00;1.83;;;32.80;52.00;;;33.63;25.68;98195.06;5216867;28;20251;-60
2022/06/18 10:57:06;;;;;;;2.85;1.83;;;32.60;55.30;;;33.43;25.22;98186.81;5203321;28;20225;-59
2022/06/18 10:59:41;;;;;;;2.00;1.80;;;32.50;54.30;;;33.53;25.79;98182.13;5201589;28;20367;-60
2022/06/18 11:02:21;;;;;;;2.25;2.00;;;32.50;55.00;;;33.64;25.14;98180.88;5195666;28;20193;-60
2022/06/18 11:04:59;;;;;;;2.30;2.10;;;32.60;54.40;;;33.63;25.50;98183.59;5200768;28;20189;-60
2022/06/18 11:07:34;;;;;;;1.90;1.80;;;32.60;54.50;;;33.87;24.84;98177.50;5201474;28;20236;-59
2022/06/18 11:10:22;;;;;;;1.73;1.63;;;32.80;54.00;;;33.83;24.13;98175.88;5200654;28;20252;-57
2022/06/18 11:13:00;;;;;;;1.70;1.60;;;32.70;53.20;;;33.71;24.16;98176.28;5205879;28;20268;-60
2022/06/18 11:15:38;;;;;;;1.80;1.70;;;32.60;53.40;;;33.89;23.91;98179.25;5207772;28;20282;-55